Time;durP1;ratioP1;P1;durP2;ratioP2;P2;SDS_P1;SDS_P2;PMS_P1;PMS_P2;Temp;Humidity;BMP_temperature;BMP_pressure;BME280_temperature;BME280_humidity;BME280_pressure;Samples;Min_cycle;Max_cycle;Signal;HPM_P1;HPM_P2
2021/10/11 00:02:45;;;;;;;11.47;7.30;;;;;;;6.62;81.59;98452.03;6241332;28;20188;-74
2021/10/11 00:05:46;;;;;;;10.47;7.70;;;;;;;6.61;81.51;98460.81;6259198;28;20192;-74
2021/10/11 00:08:48;;;;;;;10.67;6.80;;;;;;;6.64;82.07;98455.41;6259611;28;20565;-74
2021/10/11 00:11:50;;;;;;;7.63;6.27;;;;;;;6.67;81.66;98457.03;6240650;28;20261;-74
2021/10/11 00:14:52;;;;;;;8.07;6.17;;;;;;;6.69;81.52;98454.34;6224732;28;20201;-74
2021/10/11 00:17:56;;;;;;;12.30;7.23;;;;;;;6.68;81.76;98450.03;6242178;28;20189;-74
2021/10/11 00:20:58;;;;;;;9.47;6.20;;;;;;;6.68;81.44;98453.50;6255394;28;20194;-75
2021/10/11 00:24:00;;;;;;;10.63;7.33;;;;;;;6.66;81.47;98445.69;6257822;28;20602;-74
2021/10/11 00:27:02;;;;;;;11.03;6.53;;;;;;;6.67;81.68;98438.69;6259520;28;20422;-74
2021/10/11 00:30:07;;;;;;;10.90;6.97;;;;;;;6.69;81.68;98434.19;6240729;28;20372;-75
2021/10/11 00:33:09;;;;;;;8.87;6.17;;;;;;;6.70;81.53;98425.38;6257203;28;20207;-74
2021/10/11 00:36:11;;;;;;;9.67;7.00;;;;;;;6.70;81.53;98425.38;6257897;28;20195;-74
2021/10/11 00:39:13;;;;;;;7.60;5.80;;;;;;;6.70;81.63;98430.63;6259282;28;20198;-74
2021/10/11 00:42:15;;;;;;;12.17;8.40;;;;;;;6.70;81.98;98430.63;6223644;28;20201;-74
2021/10/11 00:45:17;;;;;;;12.20;7.23;;;;;;;6.64;81.75;98418.69;6254496;28;20197;-75
2021/10/11 00:48:19;;;;;;;12.93;7.67;;;;;;;6.62;81.52;98422.31;6241616;28;20192;-75
2021/10/11 00:51:21;;;;;;;13.00;8.13;;;;;;;6.61;81.54;98421.47;6257555;28;20201;-74
2021/10/11 00:54:24;;;;;;;8.90;6.87;;;;;;;6.62;81.54;98422.31;6240764;28;20755;-74
2021/10/11 00:57:26;;;;;;;10.53;7.13;;;;;;;6.65;80.61;98416.94;6240750;28;20195;-75
2021/10/11 01:00:28;;;;;;;11.73;7.50;;;;;;;6.74;79.73;98408.56;6255445;28;20333;-74
2021/10/11 01:03:30;;;;;;;12.77;7.40;;;;;;;6.76;79.13;98411.97;6240609;28;20199;-75
2021/10/11 01:06:36;;;;;;;11.77;7.93;;;;;;;6.88;77.83;98410.47;6239715;28;20209;-75
2021/10/11 01:09:38;;;;;;;13.27;7.03;;;;;;;6.92;77.34;98407.56;6256392;28;20297;-75
2021/10/11 01:12:40;;;;;;;13.80;7.40;;;;;;;6.97;76.22;98405.56;6257287;28;20219;-75
2021/10/11 01:15:43;;;;;;;10.97;7.07;;;;;;;7.00;76.29;98404.53;6239363;28;20668;-75
2021/10/11 01:18:46;;;;;;;8.70;6.40;;;;;;;7.03;75.75;98401.75;6256394;28;20193;-75
2021/10/11 01:21:47;;;;;;;11.13;6.97;;;;;;;6.99;76.32;98406.31;6259293;28;20196;-75
2021/10/11 01:24:49;;;;;;;10.70;6.83;;;;;;;6.98;75.82;98403.78;6239208;28;20566;-74
2021/10/11 01:27:51;;;;;;;12.10;7.00;;;;;;;7.06;74.38;98412.09;6257124;28;20211;-75
2021/10/11 01:30:53;;;;;;;12.63;7.63;;;;;;;7.10;73.89;98410.97;6240892;28;20230;-75
2021/10/11 01:33:55;;;;;;;14.90;7.00;;;;;;;7.11;73.00;98409.19;6257230;28;20204;-75
2021/10/11 01:36:57;;;;;;;13.03;6.83;;;;;;;7.12;73.37;98400.41;6238639;28;20207;-75
2021/10/11 01:39:59;;;;;;;11.83;6.43;;;;;;;7.15;71.46;98398.47;6258466;28;20597;-75
2021/10/11 01:43:01;;;;;;;15.70;7.20;;;;;;;7.24;70.43;98394.47;6238953;28;20689;-75
2021/10/11 01:46:03;;;;;;;11.97;6.83;;;;;;;7.25;72.08;98390.94;6241573;28;20207;-74
2021/10/11 01:49:05;;;;;;;10.57;7.17;;;;;;;7.20;72.94;98385.06;6245223;28;20197;-75
2021/10/11 01:52:07;;;;;;;12.63;7.40;;;;;;;7.19;72.51;98386.84;6244247;28;20213;-74
2021/10/11 01:55:09;;;;;;;10.60;7.27;;;;;;;7.18;73.24;98381.72;6261152;28;20190;-75
2021/10/11 01:58:11;;;;;;;10.23;6.13;;;;;;;7.17;73.53;98380.00;6245259;28;20234;-75
2021/10/11 02:01:13;;;;;;;11.43;7.20;;;;;;;7.19;71.73;98375.50;6250048;28;20269;-75
2021/10/11 02:04:16;;;;;;;12.33;8.20;;;;;;;7.20;72.63;98371.94;6245557;28;20197;-75
2021/10/11 02:07:18;;;;;;;12.37;7.40;;;;;;;7.22;71.03;98368.31;6258268;28;20596;-75
2021/10/11 02:10:20;;;;;;;11.57;6.70;;;;;;;7.26;69.83;98361.97;6243527;28;20563;-75
2021/10/11 02:13:22;;;;;;;14.17;7.50;;;;;;;7.30;70.13;98363.47;6262537;28;20236;-74
2021/10/11 02:16:24;;;;;;;12.30;7.83;;;;;;;7.32;69.71;98356.34;6243858;28;20204;-75
2021/10/11 02:19:28;;;;;;;11.87;6.83;;;;;;;7.36;68.76;98355.28;6260502;28;20188;-74
2021/10/11 02:22:29;;;;;;;10.93;7.20;;;;;;;7.41;68.94;98358.47;6261297;28;20194;-74
2021/10/11 02:25:32;;;;;;;12.57;7.27;;;;;;;7.45;67.17;98356.53;6243756;28;20555;-74
2021/10/11 02:28:35;;;;;;;15.00;7.13;;;;;;;7.51;67.67;98355.31;6260383;28;20217;-74
2021/10/11 02:31:37;;;;;;;15.77;7.43;;;;;;;7.54;67.43;98355.16;6223380;28;20214;-74
2021/10/11 02:34:39;;;;;;;12.97;7.10;;;;;;;7.59;65.90;98350.47;6257942;28;20202;-74
2021/10/11 02:37:43;;;;;;;11.13;7.13;;;;;;;7.62;65.47;98352.91;6260905;28;20200;-74
2021/10/11 02:40:45;;;;;;;17.13;7.67;;;;;;;7.68;64.96;98358.69;6244022;28;20196;-74
2021/10/11 02:43:47;;;;;;;9.60;6.87;;;;;;;7.72;64.46;98351.44;6259967;28;20223;-74
2021/10/11 02:46:49;;;;;;;11.20;7.93;;;;;;;7.73;65.19;98345.28;6248806;28;20648;-74
2021/10/11 02:49:51;;;;;;;12.13;7.90;;;;;;;7.72;64.05;98341.78;6259255;28;20195;-74
2021/10/11 02:52:53;;;;;;;13.40;7.67;;;;;;;7.75;64.29;98352.13;6241577;28;20206;-74
2021/10/11 02:55:55;;;;;;;11.63;6.97;;;;;;;7.76;64.33;98348.56;6244435;28;20196;-74
2021/10/11 02:58:57;;;;;;;14.83;7.87;;;;;;;7.78;64.01;98343.22;6255095;28;20220;-74
2021/10/11 03:01:59;;;;;;;15.17;8.10;;;;;;;7.78;64.07;98333.56;6261955;28;20679;-74
2021/10/11 03:05:01;;;;;;;11.10;7.07;;;;;;;7.81;64.57;98332.53;6260057;28;20228;-75
2021/10/11 03:08:03;;;;;;;12.33;8.10;;;;;;;7.77;64.08;98331.88;6260073;28;20198;-74
2021/10/11 03:11:06;;;;;;;14.30;7.77;;;;;;;7.76;63.83;98324.94;6260812;28;20207;-74
2021/10/11 03:14:09;;;;;;;11.90;7.00;;;;;;;7.77;64.01;98336.28;6258339;28;20213;-74
2021/10/11 03:17:11;;;;;;;11.00;7.17;;;;;;;7.82;63.32;98330.75;6261274;28;20193;-74
2021/10/11 03:20:13;;;;;;;15.07;7.77;;;;;;;7.84;63.27;98331.50;6259076;28;20205;-74
2021/10/11 03:23:15;;;;;;;11.87;7.33;;;;;;;7.85;63.82;98334.03;6225245;28;20290;-74
2021/10/11 03:26:20;;;;;;;13.13;7.50;;;;;;;7.82;64.30;98318.44;6261653;28;20201;-74
2021/10/11 03:29:22;;;;;;;14.73;7.27;;;;;;;7.80;64.67;98325.56;6258912;28;20325;-74
2021/10/11 03:32:24;;;;;;;14.20;6.97;;;;;;;7.81;64.09;98329.03;6260534;28;20200;-74
2021/10/11 03:35:28;;;;;;;10.13;7.43;;;;;;;7.81;64.11;98327.28;6224816;28;20266;-74
2021/10/11 03:38:31;;;;;;;13.30;8.60;;;;;;;7.82;63.48;98328.13;6260546;28;20193;-74
2021/10/11 03:41:34;;;;;;;13.00;7.13;;;;;;;7.79;64.31;98324.72;6241408;28;20677;-74
2021/10/11 03:44:36;;;;;;;10.53;6.93;;;;;;;7.77;63.97;98325.78;6259115;28;20183;-74
2021/10/11 03:47:39;;;;;;;12.00;7.83;;;;;;;7.74;63.80;98318.06;6257142;28;20679;-74
2021/10/11 03:50:45;;;;;;;12.53;7.50;;;;;;;7.75;63.90;98322.38;6258826;28;20196;-74
2021/10/11 03:53:48;;;;;;;13.03;7.63;;;;;;;7.76;63.87;98326.72;6242881;28;20205;-74
2021/10/11 03:56:50;;;;;;;14.43;8.10;;;;;;;7.76;63.75;98311.78;6259495;28;20512;-74
2021/10/11 03:59:52;;;;;;;12.97;8.00;;;;;;;7.75;63.83;98315.34;6257596;28;20209;-74
2021/10/11 04:02:56;;;;;;;13.07;7.87;;;;;;;7.75;63.12;98317.97;6259470;28;20679;-74
2021/10/11 04:05:58;;;;;;;12.33;7.43;;;;;;;7.78;63.63;98322.22;6255337;28;20201;-74
2021/10/11 04:09:01;;;;;;;10.43;7.50;;;;;;;7.77;63.39;98312.63;6242170;28;20197;-74
2021/10/11 04:12:08;;;;;;;10.67;7.23;;;;;;;7.76;64.35;98317.03;6240760;28;20202;-75
2021/10/11 04:15:10;;;;;;;13.43;7.50;;;;;;;7.73;64.08;98314.59;6258582;28;20344;-74
2021/10/11 04:18:12;;;;;;;11.90;7.50;;;;;;;7.73;64.16;98316.38;6258137;28;20257;-74
2021/10/11 04:21:14;;;;;;;11.47;7.37;;;;;;;7.74;64.36;98325.94;6258141;28;20198;-74
2021/10/11 04:24:16;;;;;;;11.63;7.27;;;;;;;7.75;63.81;98322.38;6257734;28;20194;-74
2021/10/11 04:27:18;;;;;;;11.17;7.73;;;;;;;7.73;64.50;98319.00;6257125;28;20232;-74
2021/10/11 04:30:20;;;;;;;12.07;7.47;;;;;;;7.77;63.23;98318.75;6257437;28;20245;-74
2021/10/11 04:33:23;;;;;;;12.03;7.33;;;;;;;7.81;63.71;98313.28;6257792;28;20983;-74
2021/10/11 04:36:26;;;;;;;12.70;7.30;;;;;;;7.82;63.40;98317.59;6258872;28;20551;-74
2021/10/11 04:39:28;;;;;;;11.07;7.80;;;;;;;7.78;64.00;98312.56;6258018;28;20227;-74
2021/10/11 04:42:30;;;;;;;15.53;8.37;;;;;;;7.78;63.76;98309.06;6258780;28;20208;-74
2021/10/11 04:45:33;;;;;;;11.87;6.97;;;;;;;7.79;63.52;98306.34;6257867;28;20193;-74
2021/10/11 04:48:35;;;;;;;10.23;7.70;;;;;;;7.78;63.87;98302.03;6259025;28;20210;-74
2021/10/11 04:51:37;;;;;;;12.33;7.50;;;;;;;7.79;63.28;98311.59;6239242;28;20227;-74
2021/10/11 04:54:39;;;;;;;11.77;7.67;;;;;;;7.80;63.22;98309.81;6256517;28;20554;-74
2021/10/11 04:57:44;;;;;;;12.23;7.33;;;;;;;7.84;62.03;98306.06;6257763;28;20255;-74
2021/10/11 05:00:46;;;;;;;13.33;7.87;;;;;;;7.85;63.60;98302.50;6256240;28;20222;-74
2021/10/11 05:03:48;;;;;;;13.47;7.70;;;;;;;7.84;63.42;98313.09;6258032;28;20647;-74
2021/10/11 05:06:50;;;;;;;13.63;7.50;;;;;;;7.83;63.30;98312.25;6239883;28;20203;-74
2021/10/11 05:09:52;;;;;;;11.50;6.93;;;;;;;7.85;63.12;98318.28;6255918;28;20193;-74
2021/10/11 05:12:54;;;;;;;9.27;7.47;;;;;;;7.87;62.22;98308.53;6258661;28;20211;-74
2021/10/11 05:15:56;;;;;;;15.83;7.70;;;;;;;7.88;62.24;98312.84;6256834;28;20205;-74
2021/10/11 05:18:59;;;;;;;10.23;6.90;;;;;;;7.88;63.27;98307.59;6237600;28;20202;-74
2021/10/11 05:22:01;;;;;;;11.57;7.27;;;;;;;7.87;63.31;98312.94;6240560;28;20202;-74
2021/10/11 05:25:05;;;;;;;8.73;6.17;;;;;;;7.86;63.15;98314.72;6257097;28;20198;-74
2021/10/11 05:28:07;;;;;;;11.77;6.43;;;;;;;7.86;63.33;98308.63;6257524;28;20690;-74
2021/10/11 05:31:15;;;;;;;8.30;6.30;;;;;;;7.90;62.95;98308.31;6255606;28;20238;-74
2021/10/11 05:34:17;;;;;;;15.17;7.73;;;;;;;7.91;63.40;98307.41;6258734;28;20710;-74
2021/10/11 05:37:20;;;;;;;11.07;6.87;;;;;;;7.90;63.27;98299.59;6253667;28;20188;-74
2021/10/11 05:40:21;;;;;;;9.07;6.57;;;;;;;7.94;62.32;98312.47;6258932;28;20614;-74
2021/10/11 05:43:23;;;;;;;11.33;6.73;;;;;;;7.96;63.26;98305.34;6257506;28;20184;-74
2021/10/11 05:46:25;;;;;;;12.43;7.23;;;;;;;7.97;63.72;98317.56;6256544;28;20266;-74
2021/10/11 05:49:44;;;;;;;9.97;6.50;;;;;;;7.98;63.54;98324.50;6255008;28;20215;-74
2021/10/11 05:52:46;;;;;;;10.97;6.27;;;;;;;7.97;64.41;98322.81;6257811;28;20225;-74
2021/10/11 05:55:48;;;;;;;9.03;6.27;;;;;;;7.96;64.29;98321.13;6255332;28;20194;-74
2021/10/11 05:58:50;;;;;;;13.57;7.23;;;;;;;8.02;63.91;98326.00;6257459;28;20189;-74
2021/10/11 06:01:55;;;;;;;10.50;6.73;;;;;;;8.06;63.92;98326.69;6238610;28;20294;-74
2021/10/11 06:04:57;;;;;;;10.93;6.27;;;;;;;8.09;64.37;98327.31;6257019;28;20186;-74
2021/10/11 06:08:00;;;;;;;7.73;6.20;;;;;;;8.07;65.12;98334.47;6233799;28;20196;-74
2021/10/11 06:11:02;;;;;;;9.43;6.80;;;;;;;8.06;65.41;98327.53;6239489;28;20208;-74
2021/10/11 06:14:04;;;;;;;9.63;6.57;;;;;;;8.05;64.65;98338.13;6239830;28;20234;-74
2021/10/11 06:17:06;;;;;;;9.57;6.37;;;;;;;8.10;65.55;98341.31;6238707;28;20220;-74
2021/10/11 06:20:09;;;;;;;9.00;6.43;;;;;;;8.13;64.78;98344.63;6240179;28;20201;-74
2021/10/11 06:23:13;;;;;;;12.17;7.30;;;;;;;8.18;64.70;98343.50;6257003;28;20658;-74
2021/10/11 06:26:15;;;;;;;11.70;6.27;;;;;;;8.24;64.28;98343.97;6257948;28;20202;-74
2021/10/11 06:29:17;;;;;;;9.63;7.03;;;;;;;8.29;64.08;98349.78;6256424;28;20629;-74
2021/10/11 06:32:19;;;;;;;11.20;6.57;;;;;;;8.34;63.91;98353.03;6260563;28;20199;-74
2021/10/11 06:35:21;;;;;;;9.63;6.50;;;;;;;8.39;64.70;98348.31;6244514;28;20245;-72
2021/10/11 06:38:23;;;;;;;10.80;7.20;;;;;;;8.40;64.27;98343.91;6260760;28;20211;-71
2021/10/11 06:41:27;;;;;;;9.47;7.20;;;;;;;8.40;63.99;98351.78;6260935;28;20682;-71
2021/10/11 06:44:30;;;;;;;10.03;7.03;;;;;;;8.48;63.86;98357.47;6243345;28;20189;-71
2021/10/11 06:47:32;;;;;;;11.80;6.70;;;;;;;8.49;63.51;98362.59;6261350;28;20739;-71
2021/10/11 06:50:34;;;;;;;10.80;7.47;;;;;;;8.54;62.74;98359.72;6259308;28;20266;-71
2021/10/11 06:53:36;;;;;;;8.60;7.30;;;;;;;8.59;62.07;98362.03;6259985;28;20194;-71
2021/10/11 06:56:38;;;;;;;9.73;6.33;;;;;;;8.68;63.38;98362.34;6258878;28;20694;-71
2021/10/11 06:59:42;;;;;;;9.13;6.60;;;;;;;8.82;63.27;98362.31;6255459;28;20651;-71
2021/10/11 07:02:44;;;;;;;10.80;7.10;;;;;;;8.91;62.92;98362.69;6260255;28;20234;-71
2021/10/11 07:05:46;;;;;;;7.37;5.97;;;;;;;9.01;64.42;98367.28;6243421;28;20187;-71
2021/10/11 07:08:48;;;;;;;18.13;7.20;;;;;;;9.14;64.07;98364.72;6259524;28;20192;-71
2021/10/11 07:11:50;;;;;;;13.00;7.10;;;;;;;9.18;62.84;98360.97;6242974;28;20203;-71
2021/10/11 07:14:52;;;;;;;10.43;7.30;;;;;;;9.25;62.04;98368.38;6260082;28;20215;-71
2021/10/11 07:17:54;;;;;;;11.43;7.20;;;;;;;9.41;63.29;98370.84;6259242;28;20195;-71
2021/10/11 07:20:56;;;;;;;11.73;7.27;;;;;;;9.60;61.76;98359.94;6261420;28;20275;-72
2021/10/11 07:23:58;;;;;;;13.07;7.70;;;;;;;9.81;62.88;98355.91;6259157;28;20232;-71
2021/10/11 07:27:00;;;;;;;12.13;7.93;;;;;;;9.92;61.96;98353.41;6256248;28;20588;-71
2021/10/11 07:30:03;;;;;;;13.70;7.90;;;;;;;9.88;60.63;98348.47;6241465;28;20232;-72
2021/10/11 07:33:07;;;;;;;13.90;7.77;;;;;;;9.87;60.96;98350.25;6258798;28;20282;-71
2021/10/11 07:36:09;;;;;;;10.47;7.67;;;;;;;9.75;60.66;98348.41;6226320;28;20666;-71
2021/10/11 07:39:11;;;;;;;13.27;8.60;;;;;;;9.58;59.41;98336.34;6260446;28;20257;-71
2021/10/11 07:42:13;;;;;;;15.13;8.70;;;;;;;9.55;61.73;98357.63;6258754;28;20281;-71
2021/10/11 07:45:15;;;;;;;12.03;8.67;;;;;;;9.49;60.75;98350.13;6258827;28;20188;-71
2021/10/11 07:48:17;;;;;;;12.73;8.13;;;;;;;9.40;61.47;98344.59;6261019;28;20187;-71
2021/10/11 07:51:18;;;;;;;11.63;8.27;;;;;;;9.22;61.49;98339.59;6255605;28;20196;-71
2021/10/11 07:54:20;;;;;;;12.70;8.23;;;;;;;9.16;60.83;98347.88;6240905;28;20237;-71
2021/10/11 07:57:22;;;;;;;12.60;8.10;;;;;;;9.18;61.50;98337.25;6258851;28;20195;-71
2021/10/11 08:00:25;;;;;;;11.73;7.90;;;;;;;9.24;62.07;98332.44;6253173;28;20191;-71
2021/10/11 08:03:28;;;;;;;14.63;7.97;;;;;;;9.29;62.40;98321.59;6259556;28;20189;-71
2021/10/11 08:06:31;;;;;;;11.73;7.47;;;;;;;9.71;60.13;98320.56;6258439;28;20201;-71
2021/10/11 08:09:33;;;;;;;14.53;8.03;;;;;;;9.97;58.82;98309.13;6259965;28;20196;-71
2021/10/11 08:12:35;;;;;;;12.43;7.47;;;;;;;10.14;58.90;98321.16;6258278;28;20663;-71
2021/10/11 08:15:37;;;;;;;11.23;7.70;;;;;;;10.59;56.92;98326.88;6258618;28;20844;-71
2021/10/11 08:18:39;;;;;;;12.03;7.90;;;;;;;10.91;56.10;98322.81;6257569;28;20693;-71
2021/10/11 08:21:41;;;;;;;10.90;7.23;;;;;;;11.00;55.04;98319.50;6240473;28;20192;-71
2021/10/11 08:24:42;;;;;;;11.40;7.13;;;;;;;11.15;54.80;98327.28;6256715;28;20635;-71
2021/10/11 08:27:44;;;;;;;10.67;6.70;;;;;;;11.47;54.45;98323.16;6260269;28;20261;-71
2021/10/11 08:30:46;;;;;;;10.17;7.23;;;;;;;11.85;53.49;98330.06;6257341;28;20599;-71
2021/10/11 08:33:48;;;;;;;14.73;7.40;;;;;;;11.79;53.11;98328.69;6256988;28;20208;-71
2021/10/11 08:36:50;;;;;;;10.93;7.63;;;;;;;11.90;52.74;98323.44;6257888;28;20647;-71
2021/10/11 08:39:52;;;;;;;11.47;7.23;;;;;;;11.90;52.14;98322.59;6256065;28;20206;-71
2021/10/11 08:42:56;;;;;;;11.70;7.13;;;;;;;12.15;51.99;98318.00;6259377;28;20195;-71
2021/10/11 08:46:00;;;;;;;11.83;7.13;;;;;;;12.74;51.14;98322.25;6256190;28;20330;-71
2021/10/11 08:49:02;;;;;;;11.07;7.00;;;;;;;12.82;50.46;98317.19;6255771;28;20197;-71
2021/10/11 08:52:04;;;;;;;9.63;6.50;;;;;;;12.21;50.27;98319.31;6239826;28;20578;-71
2021/10/11 08:55:06;;;;;;;10.57;7.03;;;;;;;11.96;51.45;98314.22;6240117;28;20220;-71
2021/10/11 08:58:08;;;;;;;11.97;7.70;;;;;;;12.12;51.10;98314.72;6258216;28;20721;-71
2021/10/11 09:01:12;;;;;;;9.83;7.70;;;;;;;12.37;50.03;98311.06;6256701;28;20194;-71
2021/10/11 09:04:16;;;;;;;10.77;6.87;;;;;;;12.69;50.60;98313.81;6256474;28;20206;-71
2021/10/11 09:07:23;;;;;;;15.10;7.30;;;;;;;12.97;49.31;98305.38;6256481;28;20187;-71
2021/10/11 09:10:26;;;;;;;9.80;7.30;;;;;;;13.53;48.12;98302.63;6237503;28;20239;-71
2021/10/11 09:13:29;;;;;;;10.60;7.70;;;;;;;13.57;47.08;98304.91;6258468;28;20194;-71
2021/10/11 09:16:40;;;;;;;10.27;7.30;;;;;;;13.42;48.20;98306.16;6256826;28;20199;-71
2021/10/11 09:19:56;;;;;;;11.10;7.27;;;;;;;13.41;47.98;98300.97;6254436;28;20672;-71
2021/10/11 09:23:01;;;;;;;11.27;7.17;;;;;;;13.45;47.24;98303.25;6258993;28;20727;-71
2021/10/11 09:26:15;;;;;;;9.17;6.60;;;;;;;13.52;48.16;98299.13;6254308;28;20659;-71
2021/10/11 09:29:32;;;;;;;9.77;6.73;;;;;;;13.44;47.46;98288.31;6256244;28;20237;-71
2021/10/11 09:32:34;;;;;;;11.30;6.43;;;;;;;13.84;47.51;98293.78;6257682;28;20194;-71
2021/10/11 09:35:37;;;;;;;11.13;6.20;;;;;;;14.26;46.83;98286.69;6256465;28;20233;-71
2021/10/11 09:38:39;;;;;;;9.23;6.37;;;;;;;14.73;44.44;98276.44;6255332;28;20661;-71
2021/10/11 09:41:50;;;;;;;7.83;5.87;;;;;;;15.17;44.18;98277.81;6238428;28;20196;-71
2021/10/11 09:44:53;;;;;;;10.73;6.73;;;;;;;15.29;43.92;98274.03;6241332;28;20663;-71
2021/10/11 09:48:05;;;;;;;10.63;6.73;;;;;;;15.19;44.33;98269.69;6245236;28;20695;-71
2021/10/11 09:51:07;;;;;;;9.50;7.00;;;;;;;14.98;44.72;98267.13;6256489;28;20237;-71
2021/10/11 09:54:10;;;;;;;9.73;6.87;;;;;;;14.96;44.61;98269.09;6236824;28;20216;-71
2021/10/11 09:57:12;;;;;;;8.20;5.97;;;;;;;15.35;44.16;98264.69;6239295;28;20434;-71
2021/10/11 10:00:15;;;;;;;10.33;6.67;;;;;;;15.28;43.29;98258.22;6255362;28;20191;-71
2021/10/11 10:03:18;;;;;;;9.27;6.50;;;;;;;15.49;43.86;98259.78;6255003;28;20195;-71
2021/10/11 10:06:23;;;;;;;7.67;6.07;;;;;;;15.28;41.87;98266.19;6255423;28;20184;-71
2021/10/11 10:09:28;;;;;;;7.73;5.83;;;;;;;15.52;41.75;98258.66;6243864;28;20619;-71
2021/10/11 10:12:30;;;;;;;7.67;5.27;;;;;;;15.56;42.02;98254.78;6260722;28;20671;-71
2021/10/11 10:15:35;;;;;;;9.43;6.77;;;;;;;15.42;41.18;98258.66;6242770;28;20212;-71
2021/10/11 10:18:39;;;;;;;7.90;5.50;;;;;;;15.15;42.54;98253.19;6262604;28;20300;-71
2021/10/11 10:21:41;;;;;;;6.73;5.40;;;;;;;14.91;42.90;98255.34;6260710;28;20188;-71
2021/10/11 10:24:44;;;;;;;7.83;5.53;;;;;;;14.64;42.85;98240.03;6260640;28;20184;-71
2021/10/11 10:27:48;;;;;;;8.20;5.40;;;;;;;14.75;43.58;98231.97;6262101;28;20301;-71
2021/10/11 10:30:59;;;;;;;11.47;6.70;;;;;;;14.58;42.66;98232.59;6236074;28;20279;-72
2021/10/11 10:34:15;;;;;;;7.40;5.70;;;;;;;14.50;42.77;98248.38;6231827;28;20196;-71
2021/10/11 10:37:17;;;;;;;8.23;5.73;;;;;;;14.80;42.57;98219.09;6237374;28;20558;-71
2021/10/11 10:40:23;;;;;;;7.33;5.10;;;;;;;15.22;41.60;98227.72;6235265;28;20188;-71
2021/10/11 10:43:25;;;;;;;9.73;5.73;;;;;;;15.28;40.42;98208.53;6232855;28;20196;-71
2021/10/11 10:46:27;;;;;;;8.87;6.00;;;;;;;15.31;40.88;98218.91;6234212;28;20286;-71
2021/10/11 10:49:35;;;;;;;7.10;5.37;;;;;;;15.13;41.69;98224.06;6235257;28;20197;-72
2021/10/11 10:52:37;;;;;;;7.60;5.60;;;;;;;15.64;40.70;98219.50;6234926;28;20243;-71
2021/10/11 10:55:41;;;;;;;7.87;5.27;;;;;;;15.66;40.49;98204.22;6238821;28;20223;-71
2021/10/11 10:58:43;;;;;;;9.17;5.20;;;;;;;15.55;40.51;98196.38;6230875;28;20196;-71
2021/10/11 11:01:45;;;;;;;6.87;5.17;;;;;;;15.86;39.94;98193.41;6234766;28;20192;-72
2021/10/11 11:04:57;;;;;;;7.60;5.47;;;;;;;16.00;39.90;98207.22;6236305;28;20554;-70
2021/10/11 11:07:59;;;;;;;9.17;5.73;;;;;;;15.83;41.08;98191.03;6231732;28;20186;-71
2021/10/11 11:11:05;;;;;;;7.50;5.33;;;;;;;15.39;41.06;98196.91;6237062;28;20188;-71
2021/10/11 11:14:12;;;;;;;6.53;4.90;;;;;;;15.46;41.16;98184.75;6232669;28;20185;-71
2021/10/11 11:17:14;;;;;;;9.43;5.97;;;;;;;15.39;42.17;98181.78;6234511;28;20270;-71
2021/10/11 11:20:20;;;;;;;9.03;5.87;;;;;;;15.47;41.93;98187.25;6233923;28;20192;-71
2021/10/11 11:23:31;;;;;;;8.17;5.30;;;;;;;15.91;41.22;98182.31;6233787;28;20270;-71
2021/10/11 11:26:44;;;;;;;7.53;5.57;;;;;;;16.25;41.99;98177.31;6249467;28;20522;-71
2021/10/11 11:29:54;;;;;;;10.20;5.87;;;;;;;16.20;40.34;98164.41;6244144;28;20231;-71
2021/10/11 11:33:05;;;;;;;9.13;5.80;;;;;;;16.27;40.03;98180.63;6260848;28;20193;-71
2021/10/11 11:36:08;;;;;;;7.23;5.43;;;;;;;16.62;39.06;98163.97;6256688;28;20200;-71
2021/10/11 11:39:12;;;;;;;6.80;5.43;;;;;;;16.69;38.11;98173.03;6259303;28;20196;-72
2021/10/11 11:42:14;;;;;;;10.47;6.13;;;;;;;16.56;37.76;98183.19;6240911;28;20195;-71
2021/10/11 11:45:18;;;;;;;9.87;5.67;;;;;;;16.68;38.78;98163.34;6259614;28;20230;-71
2021/10/11 11:48:29;;;;;;;8.13;4.97;;;;;;;17.00;38.43;98168.19;6237863;28;20202;-72
2021/10/11 11:51:31;;;;;;;7.47;5.50;;;;;;;16.91;37.63;98171.78;6258426;28;20193;-71
2021/10/11 11:54:34;;;;;;;8.03;5.00;;;;;;;17.11;37.17;98154.66;6255466;28;20667;-71
2021/10/11 11:57:41;;;;;;;7.63;5.30;;;;;;;16.97;37.37;98153.34;6256042;28;20187;-72
2021/10/11 12:00:45;;;;;;;6.73;5.27;;;;;;;17.22;38.24;98150.91;6255674;28;20458;-72
2021/10/11 12:03:53;;;;;;;8.60;5.13;;;;;;;17.93;38.01;98148.97;6254842;28;20250;-72
2021/10/11 12:07:01;;;;;;;9.37;5.47;;;;;;;18.47;36.89;98146.06;6256724;28;20648;-72
2021/10/11 12:10:04;;;;;;;7.67;5.50;;;;;;;18.37;36.61;98151.53;6255673;28;20263;-72
2021/10/11 12:13:06;;;;;;;8.43;5.83;;;;;;;18.55;35.93;98152.28;6259702;28;20190;-72
2021/10/11 12:16:14;;;;;;;9.93;5.67;;;;;;;18.50;35.85;98157.25;6258784;28;20215;-72
2021/10/11 12:19:27;;;;;;;8.37;5.17;;;;;;;18.57;36.71;98150.28;6255884;28;20340;-72
2021/10/11 12:22:31;;;;;;;7.67;5.60;;;;;;;18.52;35.23;98154.44;6255993;28;20263;-72
2021/10/11 12:25:33;;;;;;;11.07;5.80;;;;;;;18.30;36.20;98134.47;6258351;28;20195;-72
2021/10/11 12:28:35;;;;;;;7.70;5.43;;;;;;;18.37;36.60;98141.66;6257143;28;20421;-72
2021/10/11 12:31:37;;;;;;;6.37;5.60;;;;;;;18.47;36.34;98152.22;6241359;28;20199;-72
2021/10/11 12:34:46;;;;;;;7.07;5.33;;;;;;;18.23;36.72;98142.28;6257205;28;20207;-71
2021/10/11 12:37:48;;;;;;;8.83;5.43;;;;;;;18.80;36.30;98139.84;6256546;28;20663;-72
2021/10/11 12:40:50;;;;;;;7.23;4.93;;;;;;;19.26;36.50;98135.75;6248571;28;20246;-71
2021/10/11 12:43:58;;;;;;;7.77;5.80;;;;;;;19.45;35.38;98137.25;6258749;28;20198;-72
2021/10/11 12:47:00;;;;;;;7.13;5.30;;;;;;;19.16;35.17;98137.75;6256912;28;20195;-72
2021/10/11 12:50:07;;;;;;;7.50;5.63;;;;;;;19.33;34.95;98134.06;6254395;28;20215;-72
2021/10/11 12:53:13;;;;;;;5.97;4.70;;;;;;;19.67;35.32;98128.53;6257558;28;20245;-72
2021/10/11 12:56:16;;;;;;;7.57;4.97;;;;;;;20.18;35.28;98127.25;6259478;28;20287;-72
2021/10/11 12:59:20;;;;;;;7.83;6.07;;;;;;;20.10;34.51;98137.16;6252688;28;20188;-72
2021/10/11 13:02:22;;;;;;;7.03;5.30;;;;;;;20.25;34.49;98135.47;6251848;28;20199;-72
2021/10/11 13:05:24;;;;;;;10.93;6.07;;;;;;;20.53;34.32;98119.78;6256131;28;20286;-72
2021/10/11 13:08:26;;;;;;;8.57;5.50;;;;;;;20.80;33.63;98119.28;6257161;28;20216;-72
2021/10/11 13:11:29;;;;;;;6.80;5.33;;;;;;;20.78;33.25;98115.94;6238110;28;20187;-72
2021/10/11 13:14:31;;;;;;;9.47;5.33;;;;;;;20.87;34.33;98098.78;6256917;28;20191;-72
2021/10/11 13:17:33;;;;;;;7.00;5.53;;;;;;;21.16;32.17;98111.50;6238060;28;20569;-72
2021/10/11 13:20:36;;;;;;;7.60;5.00;;;;;;;20.91;32.78;98096.59;6237100;28;20237;-72
2021/10/11 13:23:42;;;;;;;5.80;4.97;;;;;;;21.87;31.81;98096.78;6256528;28;20262;-72
2021/10/11 13:26:45;;;;;;;12.13;5.63;;;;;;;22.76;28.99;98084.13;6237503;28;20208;-72
2021/10/11 13:36:50;;;;;;;10.60;5.57;;;;;;;25.51;25.14;98080.56;6208358;28;20194;-72
2021/10/11 14:33:04;;;;;;;7.47;5.70;;;;;;;15.23;46.76;98045.91;6256888;28;20577;-71
2021/10/11 16:02:50;;;;;;;10.47;7.60;;;;;;;12.15;53.47;98026.09;6240067;28;20234;-71
2021/10/11 16:05:53;;;;;;;11.53;7.53;;;;;;;12.06;53.55;98026.84;6223325;28;20217;-71
2021/10/11 16:08:56;;;;;;;14.47;7.83;;;;;;;11.90;54.24;98026.38;6257126;28;20195;-72
2021/10/11 16:11:58;;;;;;;7.40;6.57;;;;;;;11.80;53.88;98034.22;6256470;28;20195;-72
2021/10/11 16:15:00;;;;;;;10.47;7.63;;;;;;;11.72;54.15;98032.16;6254577;28;20691;-72
2021/10/11 16:18:29;;;;;;;10.30;7.70;;;;;;;11.64;54.50;98028.44;6237640;28;20201;-72
2021/10/11 16:21:33;;;;;;;12.87;8.13;;;;;;;11.55;54.51;98039.72;6240069;28;20205;-73
2021/10/11 16:24:35;;;;;;;13.77;7.70;;;;;;;11.49;54.50;98043.69;6256798;28;20574;-73
2021/10/11 16:27:37;;;;;;;9.17;7.13;;;;;;;11.37;54.35;98049.94;6257030;28;20216;-74
2021/10/11 16:30:40;;;;;;;9.80;7.73;;;;;;;11.26;53.81;98049.94;6256679;28;20226;-74
2021/10/11 16:33:44;;;;;;;9.17;7.40;;;;;;;11.25;54.48;98059.66;6255323;28;20209;-74
2021/10/11 16:36:47;;;;;;;9.43;7.70;;;;;;;11.24;54.66;98060.63;6257669;28;20204;-74
2021/10/11 16:39:49;;;;;;;9.37;7.03;;;;;;;11.22;54.19;98045.84;6239759;28;20672;-74
2021/10/11 16:42:51;;;;;;;7.77;5.90;;;;;;;11.20;54.67;98055.66;6254729;28;20286;-74
2021/10/11 16:45:53;;;;;;;9.43;6.53;;;;;;;11.10;55.08;98058.16;6257434;28;20440;-74
2021/10/11 16:48:55;;;;;;;7.53;5.57;;;;;;;11.02;56.49;98058.75;6258484;28;20194;-74
2021/10/11 16:51:57;;;;;;;7.43;5.30;;;;;;;11.00;56.64;98052.75;6257017;28;20659;-73